createdAt,value
2017-10-16T00:00:46.060Z,13.41
2017-10-16T00:01:56.534Z,13.34
2017-10-16T00:03:07.023Z,13.38
2017-10-16T00:04:17.539Z,13.23
2017-10-16T00:05:28.059Z,13.26
2017-10-16T00:06:38.543Z,13.22
2017-10-16T00:07:49.113Z,13.13
2017-10-16T00:08:59.226Z,13.21
2017-10-16T00:10:09.701Z,13.18
2017-10-16T00:11:20.177Z,13.13
2017-10-16T00:12:30.650Z,13.11
2017-10-16T00:13:41.210Z,13.08
2017-10-16T00:14:51.697Z,13.12
2017-10-16T00:16:02.186Z,13.13
2017-10-16T00:17:12.655Z,13.15
2017-10-16T00:18:22.846Z,13.15
2017-10-16T00:19:33.347Z,13.04
2017-10-16T00:20:43.902Z,13.08
2017-10-16T00:21:54.395Z,13.03
2017-10-16T00:23:04.895Z,12.89
2017-10-16T00:24:14.954Z,13
2017-10-16T00:25:25.451Z,12.9
2017-10-16T00:26:36.239Z,12.85
2017-10-16T00:27:46.733Z,12.84
2017-10-16T00:28:56.893Z,12.82
2017-10-16T00:30:07.407Z,12.78
2017-10-16T00:31:17.946Z,12.78
2017-10-16T00:32:28.163Z,12.88
2017-10-16T00:33:38.634Z,12.82
2017-10-16T00:34:49.159Z,12.84
2017-10-16T00:35:59.671Z,12.71
2017-10-16T00:37:11.132Z,12.8
2017-10-16T00:38:21.703Z,12.75
2017-10-16T00:39:32.227Z,12.77
2017-10-16T00:40:42.726Z,12.74
2017-10-16T00:41:53.322Z,12.74
2017-10-16T00:43:03.813Z,12.77
2017-10-16T00:44:14.326Z,12.82
2017-10-16T00:45:24.830Z,12.81
2017-10-16T00:46:35.055Z,12.81
2017-10-16T00:47:44.824Z,12.8
2017-10-16T00:48:54.997Z,12.82
2017-10-16T00:50:05.639Z,12.84
2017-10-16T00:51:15.710Z,12.84
2017-10-16T00:52:26.178Z,12.84
2017-10-16T00:53:36.739Z,12.81
2017-10-16T00:54:47.214Z,12.74
2017-10-16T00:55:57.765Z,12.77
2017-10-16T00:57:08.276Z,12.62
2017-10-16T00:58:18.756Z,12.57
2017-10-16T00:59:29.311Z,12.63
2017-10-16T01:00:39.809Z,12.56
2017-10-16T01:01:50.291Z,12.57
2017-10-16T01:03:00.764Z,12.53
2017-10-16T01:04:11.261Z,12.55
2017-10-16T01:05:21.445Z,12.52
2017-10-16T01:06:31.923Z,12.47
2017-10-16T01:07:42.078Z,12.45
2017-10-16T01:08:52.607Z,12.47
2017-10-16T01:10:03.075Z,12.41
2017-10-16T01:11:13.564Z,12.44
2017-10-16T01:12:24.052Z,12.38
2017-10-16T01:13:34.544Z,12.39
2017-10-16T01:14:45.014Z,12.37
2017-10-16T01:15:55.507Z,12.41
2017-10-16T01:17:06.072Z,12.39
2017-10-16T01:18:16.585Z,12.48
2017-10-16T01:19:27.081Z,12.32
2017-10-16T01:20:37.625Z,12.39
2017-10-16T01:21:48.158Z,12.45
2017-10-16T01:22:58.659Z,12.38
2017-10-16T01:24:09.166Z,12.31
2017-10-16T01:25:19.653Z,12.44
2017-10-16T01:26:30.159Z,12.42
2017-10-16T01:27:40.634Z,12.37
2017-10-16T01:28:51.164Z,12.38
2017-10-16T01:30:01.889Z,12.42
2017-10-16T01:31:12.360Z,12.35
2017-10-16T01:32:22.847Z,12.39
2017-10-16T01:33:33.111Z,12.39
2017-10-16T01:34:43.325Z,12.39
2017-10-16T01:35:53.856Z,12.38
2017-10-16T01:37:04.345Z,12.37
2017-10-16T01:38:14.494Z,12.52
2017-10-16T01:39:24.979Z,12.44
2017-10-16T01:40:35.452Z,12.45
2017-10-16T01:41:45.942Z,12.47
2017-10-16T01:42:56.118Z,12.41
2017-10-16T01:44:06.284Z,12.39
2017-10-16T01:45:16.772Z,12.38
2017-10-16T01:46:27.329Z,12.45
2017-10-16T01:47:37.808Z,12.35
2017-10-16T01:48:48.298Z,12.35
2017-10-16T01:49:58.782Z,12.45
2017-10-16T01:51:09.302Z,12.38
2017-10-16T01:52:19.912Z,12.41
2017-10-16T01:53:30.284Z,12.35
2017-10-16T01:54:40.763Z,12.41
2017-10-16T01:55:51.270Z,12.38
2017-10-16T01:57:01.776Z,12.39
2017-10-16T01:58:12.270Z,12.32
2017-10-16T01:59:22.745Z,12.35
2017-10-16T02:00:32.941Z,12.29
2017-10-16T02:01:43.444Z,12.31
2017-10-16T02:02:53.960Z,12.22
2017-10-16T02:04:04.478Z,12.26
2017-10-16T02:05:14.949Z,12.2
2017-10-16T02:06:25.420Z,12.24
2017-10-16T02:07:35.900Z,12.2
2017-10-16T02:08:46.525Z,12.16
2017-10-16T02:09:56.991Z,12.19
2017-10-16T02:11:07.206Z,12.16
2017-10-16T02:12:17.799Z,12.15
2017-10-16T02:13:28.317Z,12.11
2017-10-16T02:14:38.787Z,12.13
2017-10-16T02:15:49.270Z,12.08
2017-10-16T02:16:59.796Z,12.07
2017-10-16T02:18:10.266Z,12.04
2017-10-16T02:19:20.753Z,12.01
2017-10-16T02:20:31.221Z,12.07
2017-10-16T02:21:41.727Z,12.04
2017-10-16T02:22:52.207Z,11.95
2017-10-16T02:24:02.351Z,11.91
2017-10-16T02:25:12.822Z,11.97
2017-10-16T02:26:23.285Z,11.89
2017-10-16T02:27:33.837Z,11.87
2017-10-16T02:28:44.319Z,11.95
2017-10-16T02:29:54.804Z,11.9
2017-10-16T02:31:05.293Z,11.97
2017-10-16T02:32:15.773Z,11.89
2017-10-16T02:33:26.351Z,11.98
2017-10-16T02:34:36.535Z,12.02
2017-10-16T02:35:47.020Z,12.04
2017-10-16T02:36:57.517Z,12.02
2017-10-16T02:38:08.012Z,12.04
2017-10-16T02:39:18.553Z,12.02
2017-10-16T02:40:28.392Z,12.04
2017-10-16T02:41:38.603Z,12.04
2017-10-16T02:42:48.760Z,12.02
2017-10-16T02:43:59.279Z,12.08
2017-10-16T02:45:09.762Z,11.99
2017-10-16T02:46:20.281Z,11.98
2017-10-16T02:47:31.088Z,11.95
2017-10-16T02:48:41.604Z,12.01
2017-10-16T02:49:52.062Z,12.02
2017-10-16T02:51:02.245Z,11.95
2017-10-16T02:52:12.706Z,11.97
2017-10-16T02:53:23.173Z,12.05
2017-10-16T02:54:33.328Z,11.87
2017-10-16T02:55:43.819Z,11.97
2017-10-16T02:56:53.982Z,11.91
2017-10-16T02:58:04.469Z,11.9
2017-10-16T02:59:14.953Z,11.87
2017-10-16T03:00:25.434Z,11.94
2017-10-16T03:01:35.917Z,11.83
2017-10-16T03:02:46.069Z,11.86
2017-10-16T03:03:56.792Z,11.84
2017-10-16T03:05:07.270Z,11.82
2017-10-16T03:06:17.415Z,11.82
2017-10-16T03:07:27.594Z,11.8
2017-10-16T03:08:38.175Z,11.77
2017-10-16T03:09:49.099Z,11.77
2017-10-16T03:10:59.597Z,11.74
2017-10-16T03:12:10.080Z,11.76
2017-10-16T03:13:20.544Z,11.71
2017-10-16T03:14:31.036Z,11.72
2017-10-16T03:15:41.504Z,11.68
2017-10-16T03:16:51.996Z,11.64
2017-10-16T03:18:03.450Z,11.61
2017-10-16T03:19:13.620Z,11.5
2017-10-16T03:20:24.136Z,11.59
2017-10-16T03:21:34.627Z,11.5
2017-10-16T03:22:45.123Z,11.48
2017-10-16T03:23:55.615Z,11.46
2017-10-16T03:25:05.707Z,11.52
2017-10-16T03:26:16.224Z,11.49
2017-10-16T03:27:26.692Z,11.46
2017-10-16T03:28:37.011Z,11.46
2017-10-16T03:29:47.493Z,11.45
2017-10-16T03:30:57.984Z,11.45
2017-10-16T03:32:08.477Z,11.46
2017-10-16T03:33:19.099Z,11.58
2017-10-16T03:34:29.618Z,11.58
2017-10-16T03:35:40.244Z,11.62
2017-10-16T03:36:50.750Z,11.61
2017-10-16T03:38:00.938Z,11.61
2017-10-16T03:39:11.416Z,11.58
2017-10-16T03:40:21.962Z,11.61
2017-10-16T03:41:32.544Z,11.52
2017-10-16T03:42:43.039Z,11.58
2017-10-16T03:43:53.532Z,11.59
2017-10-16T03:45:04.032Z,11.59
2017-10-16T03:46:14.490Z,11.62
2017-10-16T03:47:24.978Z,11.58
2017-10-16T03:48:35.174Z,11.62
2017-10-16T03:49:45.673Z,11.64
2017-10-16T03:50:56.150Z,11.58
2017-10-16T03:52:06.626Z,11.58
2017-10-16T03:53:17.116Z,11.65
2017-10-16T03:54:27.265Z,11.57
2017-10-16T03:55:37.772Z,11.59
2017-10-16T03:56:48.270Z,11.52
2017-10-16T03:57:58.791Z,11.46
2017-10-16T03:59:09.280Z,11.43
2017-10-16T04:00:19.855Z,11.49
2017-10-16T04:01:30.378Z,11.39
2017-10-16T04:02:41.095Z,11.48
2017-10-16T04:03:51.707Z,11.5
2017-10-16T04:05:02.264Z,11.43
2017-10-16T04:06:12.742Z,11.38
2017-10-16T04:07:23.821Z,11.42
2017-10-16T04:08:34.301Z,11.4
2017-10-16T04:09:44.851Z,11.49
2017-10-16T04:10:55.318Z,11.4
2017-10-16T04:12:05.863Z,11.42
2017-10-16T04:13:16.361Z,11.49
2017-10-16T04:14:26.881Z,11.42
2017-10-16T04:15:37.578Z,11.38
2017-10-16T04:16:48.043Z,11.39
2017-10-16T04:17:58.741Z,11.39
2017-10-16T04:19:09.240Z,11.33
2017-10-16T04:20:19.748Z,11.3
2017-10-16T04:21:30.246Z,11.23
2017-10-16T04:22:40.723Z,11.25
2017-10-16T04:23:50.980Z,11.2
2017-10-16T04:25:01.609Z,11.2
2017-10-16T04:26:12.155Z,11.13
2017-10-16T04:27:22.315Z,11.23
2017-10-16T04:28:32.835Z,11.1
2017-10-16T04:29:43.462Z,11.2
2017-10-16T04:30:53.927Z,11.17
2017-10-16T04:32:04.465Z,11.1
2017-10-16T04:33:14.601Z,11.12
2017-10-16T04:34:25.118Z,11.09
2017-10-16T04:35:35.607Z,11.09
2017-10-16T04:36:46.092Z,11.08
2017-10-16T04:37:56.650Z,11.16
2017-10-16T04:39:07.192Z,11.12
2017-10-16T04:40:17.675Z,11.13
2017-10-16T04:41:28.184Z,11.13
2017-10-16T04:42:38.840Z,11.16
2017-10-16T04:43:49.000Z,11.1
2017-10-16T04:44:59.490Z,11.09
2017-10-16T04:46:09.987Z,11.12
2017-10-16T04:47:20.529Z,11.09
2017-10-16T04:48:31.017Z,11.06
2017-10-16T04:49:41.516Z,11.03
2017-10-16T04:50:52.006Z,11
2017-10-16T04:52:02.499Z,11.08
2017-10-16T04:53:12.991Z,10.98
2017-10-16T04:54:23.473Z,10.91
2017-10-16T04:55:34.050Z,11
2017-10-16T04:56:44.531Z,10.91
2017-10-16T04:57:55.051Z,10.92
2017-10-16T04:59:05.534Z,10.92
2017-10-16T05:00:16.094Z,10.92
2017-10-16T05:01:26.634Z,10.92
2017-10-16T05:02:37.141Z,10.88
2017-10-16T05:03:47.621Z,10.92
2017-10-16T05:04:57.793Z,10.87
2017-10-16T05:06:09.267Z,10.87
2017-10-16T05:07:19.846Z,10.83
2017-10-16T05:08:30.333Z,10.85
2017-10-16T05:09:40.840Z,10.9
2017-10-16T05:10:51.310Z,10.87
2017-10-16T05:12:01.522Z,10.9
2017-10-16T05:13:12.055Z,10.88
2017-10-16T05:14:22.216Z,10.97
2017-10-16T05:15:32.838Z,10.94
2017-10-16T05:16:43.319Z,10.97
2017-10-16T05:17:53.469Z,10.94
2017-10-16T05:19:03.968Z,10.94
2017-10-16T05:20:14.116Z,10.88
2017-10-16T05:21:24.588Z,10.9
2017-10-16T05:22:35.183Z,10.84
2017-10-16T05:23:45.673Z,10.84
2017-10-16T05:24:56.322Z,10.8
2017-10-16T05:26:06.704Z,10.85
2017-10-16T05:27:17.197Z,10.85
2017-10-16T05:28:27.762Z,10.83
2017-10-16T05:29:38.275Z,10.84
2017-10-16T05:30:48.777Z,10.84
2017-10-16T05:31:59.246Z,10.79
2017-10-16T05:33:09.827Z,10.79
2017-10-16T05:34:20.320Z,10.79
2017-10-16T05:35:30.495Z,10.76
2017-10-16T05:36:40.971Z,10.85
2017-10-16T05:37:51.129Z,10.75
2017-10-16T05:39:01.618Z,10.72
2017-10-16T05:40:12.140Z,10.75
2017-10-16T05:41:22.337Z,10.84
2017-10-16T05:42:32.840Z,10.69
2017-10-16T05:43:43.323Z,10.8
2017-10-16T05:44:53.470Z,10.76
2017-10-16T05:46:03.653Z,10.76
2017-10-16T05:47:14.218Z,10.79
2017-10-16T05:48:24.810Z,10.84
2017-10-16T05:49:35.311Z,10.83
2017-10-16T05:50:45.873Z,10.79
2017-10-16T05:51:56.396Z,10.76
2017-10-16T05:53:06.881Z,10.8
2017-10-16T05:54:17.023Z,10.76
2017-10-16T05:55:27.486Z,10.83
2017-10-16T05:56:37.986Z,10.79
2017-10-16T05:57:48.485Z,10.87
2017-10-16T05:58:58.995Z,10.85
2017-10-16T06:00:09.041Z,10.9
2017-10-16T06:01:19.112Z,10.92
2017-10-16T06:02:29.183Z,10.88
2017-10-16T06:03:41.047Z,10.9
2017-10-16T06:04:51.136Z,11.02
2017-10-16T06:06:01.190Z,11
2017-10-16T06:07:11.256Z,11.03
2017-10-16T06:08:21.334Z,11.06
2017-10-16T06:09:31.883Z,11.12
2017-10-16T06:10:43.332Z,11.12
2017-10-16T06:11:53.438Z,11.13
2017-10-16T06:13:04.938Z,11.23
2017-10-16T06:14:15.003Z,11.28
2017-10-16T06:15:26.485Z,11.28
2017-10-16T06:16:36.700Z,11.28
2017-10-16T06:17:48.213Z,11.34
2017-10-16T06:18:58.374Z,11.35
2017-10-16T06:20:09.864Z,11.39
2017-10-16T06:21:20.017Z,11.39
2017-10-16T06:22:30.207Z,11.42
2017-10-16T06:23:39.934Z,11.38
2017-10-16T06:24:50.118Z,11.49
2017-10-16T06:26:00.159Z,11.38
2017-10-16T06:27:09.901Z,11.39
2017-10-16T06:28:19.967Z,11.42
2017-10-16T06:29:30.464Z,11.5
2017-10-16T06:30:39.584Z,11.57
2017-10-16T06:31:50.087Z,11.64
2017-10-16T06:32:58.841Z,11.66
2017-10-16T06:34:08.042Z,11.58
2017-10-16T06:35:19.925Z,11.66
2017-10-16T06:36:29.114Z,11.79
2017-10-16T06:37:37.862Z,11.8
2017-10-16T06:38:46.681Z,11.86
2017-10-16T06:39:55.759Z,11.9
2017-10-16T06:41:05.121Z,11.9
2017-10-16T06:42:16.322Z,11.99
2017-10-16T06:43:26.509Z,12.04
2017-10-16T06:44:35.260Z,12.04
2017-10-16T06:45:44.445Z,12.04
2017-10-16T06:46:53.244Z,12.09
2017-10-16T06:48:02.094Z,12.04
2017-10-16T06:49:11.501Z,12.02
2017-10-16T06:50:22.020Z,12.09
2017-10-16T06:51:32.519Z,12.11
2017-10-16T06:52:43.445Z,12.13
2017-10-16T06:53:53.316Z,12.23
2017-10-16T06:55:03.478Z,12.29
2017-10-16T06:56:12.263Z,12.37
2017-10-16T06:57:22.749Z,12.44
2017-10-16T06:58:33.599Z,12.42
2017-10-16T06:59:44.522Z,12.59
2017-10-16T07:00:53.271Z,12.74
2017-10-16T07:02:02.389Z,12.84
2017-10-16T07:03:13.233Z,13.26
2017-10-16T07:04:24.071Z,13.88
2017-10-16T07:05:32.987Z,14.74
2017-10-16T07:06:43.154Z,15.57
2017-10-16T07:07:52.228Z,16.43
2017-10-16T07:09:02.769Z,16.99
2017-10-16T07:10:14.271Z,17.73
2017-10-16T07:11:24.053Z,18.31
2017-10-16T07:12:32.826Z,18.8
2017-10-16T07:13:42.429Z,19.37
2017-10-16T07:14:52.914Z,19.92
2017-10-16T07:16:01.658Z,20.38
2017-10-16T07:17:10.751Z,20.76
2017-10-16T07:18:19.841Z,21.16
2017-10-16T07:19:28.933Z,21.38
2017-10-16T07:20:39.431Z,21.71
2017-10-16T07:21:49.491Z,22.02
2017-10-16T07:22:58.582Z,22.21
2017-10-16T07:24:09.442Z,22.43
2017-10-16T07:25:21.746Z,22.71
2017-10-16T07:26:31.600Z,22.89
2017-10-16T07:27:40.359Z,23.11
2017-10-16T07:28:50.872Z,23.2
2017-10-16T07:30:00.023Z,23.27
2017-10-16T07:31:09.763Z,23.35
2017-10-16T07:32:19.909Z,23.43
2017-10-16T07:33:28.654Z,23.4
2017-10-16T07:34:39.194Z,23.42
2017-10-16T07:35:49.700Z,23.51
2017-10-16T07:37:00.188Z,23.64
2017-10-16T07:38:08.974Z,23.75
2017-10-16T07:39:18.059Z,23.91
2017-10-16T07:40:27.256Z,24.05
2017-10-16T07:41:36.041Z,24.13
2017-10-16T07:42:45.143Z,24.15
2017-10-16T07:43:54.240Z,24.29
2017-10-16T07:45:02.996Z,24.25
2017-10-16T07:46:12.207Z,24.51
2017-10-16T07:47:23.668Z,24.6
2017-10-16T07:48:34.213Z,24.81
2017-10-16T07:49:44.429Z,25.02
2017-10-16T07:50:54.885Z,25
2017-10-16T07:52:04.074Z,25.18
2017-10-16T07:53:13.249Z,25.39
2017-10-16T07:54:21.998Z,25.61
2017-10-16T07:55:31.419Z,25.74
2017-10-16T07:56:40.178Z,26.06
2017-10-16T07:57:50.688Z,26.18
2017-10-16T07:59:00.112Z,26.29
2017-10-16T08:00:10.399Z,26.33
2017-10-16T08:01:19.497Z,26.31
2017-10-16T08:02:29.043Z,26.27
2017-10-16T08:03:37.803Z,26.29
2017-10-16T08:04:48.646Z,26.3
2017-10-16T08:05:57.403Z,26.46
2017-10-16T08:07:07.581Z,26.55
2017-10-16T08:08:18.093Z,26.8
2017-10-16T08:09:27.485Z,26.88
2017-10-16T08:10:37.865Z,26.98
2017-10-16T08:11:47.815Z,26.96
2017-10-16T08:12:57.360Z,26.99
2017-10-16T08:14:06.656Z,27.24
2017-10-16T08:15:15.752Z,27.37
2017-10-16T08:16:25.302Z,27.67
2017-10-16T08:17:35.799Z,27.86
2017-10-16T08:18:44.560Z,28.19
2017-10-16T08:19:55.396Z,28.2
2017-10-16T08:21:05.592Z,28.29
2017-10-16T08:22:16.103Z,28.51
2017-10-16T08:23:26.493Z,28.74
2017-10-16T08:24:35.272Z,28.83
2017-10-16T08:25:45.778Z,29.14
2017-10-16T08:26:54.536Z,29.29
2017-10-16T08:28:06.563Z,29.33
2017-10-16T08:29:15.682Z,29.45
2017-10-16T08:30:27.499Z,29.53
2017-10-16T08:31:37.365Z,29.51
2017-10-16T08:32:49.168Z,29.5
2017-10-16T08:33:58.282Z,29.53
2017-10-16T08:35:07.055Z,29.57
2017-10-16T08:36:16.165Z,29.53
2017-10-16T08:37:25.325Z,29.73
2017-10-16T08:38:34.093Z,29.89
2017-10-16T08:39:43.246Z,29.94
2017-10-16T08:40:53.016Z,30.14
2017-10-16T08:42:02.537Z,30.32
2017-10-16T08:43:11.715Z,30.42
2017-10-16T08:44:21.775Z,30.56
2017-10-16T08:45:30.864Z,30.59
2017-10-16T08:46:40.411Z,30.61
2017-10-16T08:47:50.483Z,30.72
2017-10-16T08:49:00.683Z,30.85
2017-10-16T08:50:09.781Z,30.97
2017-10-16T08:51:19.245Z,30.97
2017-10-16T08:52:29.413Z,31.01
2017-10-16T08:53:38.940Z,31.13
2017-10-16T08:54:48.055Z,31.19
2017-10-16T08:55:56.846Z,31.22
2017-10-16T08:57:07.345Z,31.18
2017-10-16T08:58:16.577Z,31.25
2017-10-16T08:59:25.673Z,31.2
2017-10-16T09:00:35.232Z,31.27
2017-10-16T09:01:44.681Z,31.37
2017-10-16T09:02:55.284Z,31.61
2017-10-16T09:04:04.488Z,31.75
2017-10-16T09:05:13.250Z,31.61
2017-10-16T09:06:22.464Z,31.61
2017-10-16T09:07:31.667Z,31.72
2017-10-16T09:08:40.861Z,31.8
2017-10-16T09:09:51.739Z,31.85
2017-10-16T09:11:02.568Z,31.84
2017-10-16T09:12:12.010Z,31.7
2017-10-16T09:13:21.360Z,31.63
2017-10-16T09:14:31.769Z,31.35
2017-10-16T09:15:42.269Z,31.31
2017-10-16T09:16:52.364Z,31.37
2017-10-16T09:18:01.145Z,31.35
2017-10-16T09:19:10.740Z,31.4
2017-10-16T09:20:21.316Z,31.34
2017-10-16T09:21:30.106Z,31.42
2017-10-16T09:22:40.635Z,31.31
2017-10-16T09:23:50.804Z,31.32
2017-10-16T09:24:59.935Z,31.34
2017-10-16T09:26:09.481Z,31.38
2017-10-16T09:27:18.601Z,31.4
2017-10-16T09:28:27.716Z,31.53
2017-10-16T09:29:37.505Z,31.55
2017-10-16T09:30:46.715Z,31.58
2017-10-16T09:31:57.299Z,31.44
2017-10-16T09:33:07.876Z,31.44
2017-10-16T09:34:18.422Z,31.4
2017-10-16T09:35:28.932Z,31.16
2017-10-16T09:36:39.486Z,30.88
2017-10-16T09:37:48.257Z,30.7
2017-10-16T09:38:57.391Z,30.59
2017-10-16T09:40:07.880Z,30.53
2017-10-16T09:41:17.210Z,30.29
2017-10-16T09:42:26.424Z,30.07
2017-10-16T09:43:35.965Z,29.72
2017-10-16T09:44:45.176Z,29.54
2017-10-16T09:45:55.711Z,29.57
2017-10-16T09:47:06.244Z,29.47
2017-10-16T09:48:17.494Z,29.4
2017-10-16T09:49:26.620Z,29.51
2017-10-16T09:50:39.406Z,29.66
2017-10-16T09:51:48.204Z,29.7
2017-10-16T09:52:57.742Z,29.8
2017-10-16T09:54:06.856Z,29.7
2017-10-16T09:55:15.966Z,29.77
2017-10-16T09:56:24.748Z,29.87
2017-10-16T09:57:36.917Z,30
2017-10-16T09:58:46.180Z,30.03
2017-10-16T09:59:55.073Z,30.17
2017-10-16T10:01:06.920Z,30.35
2017-10-16T10:02:17.092Z,30.38
2017-10-16T10:03:28.572Z,30.29
2017-10-16T10:04:38.011Z,30.49
2017-10-16T10:05:46.816Z,30.47
2017-10-16T10:06:57.661Z,30.44
2017-10-16T10:08:06.769Z,30.47
2017-10-16T10:09:17.647Z,30.45
2017-10-16T10:10:29.115Z,30.49
2017-10-16T10:11:39.676Z,30.33
2017-10-16T10:12:48.777Z,30.38
2017-10-16T10:13:58.317Z,30.32
2017-10-16T10:15:08.857Z,30.42
2017-10-16T10:16:17.662Z,30.53
2017-10-16T10:17:26.769Z,30.63
2017-10-16T10:18:37.450Z,30.79
2017-10-16T10:19:46.995Z,30.94
2017-10-16T10:20:58.183Z,31.05
2017-10-16T10:22:06.948Z,31.19
2017-10-16T10:23:17.792Z,31.32
2017-10-16T10:24:26.560Z,31.38
2017-10-16T10:25:37.566Z,31.51
2017-10-16T10:26:46.834Z,31.44
2017-10-16T10:27:55.943Z,31.27
2017-10-16T10:29:05.101Z,31.22
2017-10-16T10:30:14.312Z,31.05
2017-10-16T10:31:23.767Z,31.09
2017-10-16T10:32:34.179Z,31.15
2017-10-16T10:33:44.364Z,31.18
2017-10-16T10:34:53.545Z,31.12
2017-10-16T10:36:03.113Z,31.09
2017-10-16T10:37:13.014Z,31.1
2017-10-16T10:38:22.435Z,31.07
2017-10-16T10:39:31.214Z,31.05
2017-10-16T10:40:42.327Z,30.97
2017-10-16T10:41:51.134Z,30.74
2017-10-16T10:42:59.923Z,30.6
2017-10-16T10:44:10.006Z,30.39
2017-10-16T10:45:18.778Z,30.25
2017-10-16T10:46:30.637Z,30.26
2017-10-16T10:47:39.753Z,30.08
2017-10-16T10:48:49.930Z,29.88
2017-10-16T10:49:59.999Z,29.51
2017-10-16T10:51:08.871Z,29.16
2017-10-16T10:52:19.707Z,28.98
2017-10-16T10:53:31.420Z,28.91
2017-10-16T10:54:41.840Z,28.94
2017-10-16T10:55:52.015Z,28.95
2017-10-16T10:57:01.473Z,28.95
2017-10-16T10:58:10.248Z,28.73
2017-10-16T10:59:19.409Z,28.45
2017-10-16T11:00:28.837Z,28.31
2017-10-16T11:01:39.114Z,28.23
2017-10-16T11:02:47.902Z,28.19
2017-10-16T11:03:56.685Z,27.98
2017-10-16T11:05:08.854Z,27.76
2017-10-16T11:06:19.033Z,27.58
2017-10-16T11:07:28.236Z,27.46
2017-10-16T11:08:38.792Z,27.28
2017-10-16T11:09:49.052Z,27.08
2017-10-16T11:11:00.559Z,26.99
2017-10-16T11:12:09.842Z,26.92
2017-10-16T11:13:19.006Z,26.8
2017-10-16T11:14:28.120Z,26.66
2017-10-16T11:15:37.345Z,26.58
2017-10-16T11:16:46.526Z,26.66
2017-10-16T11:17:55.385Z,26.58
2017-10-16T11:19:04.188Z,26.55
2017-10-16T11:20:14.708Z,26.71
2017-10-16T11:21:26.564Z,26.83
2017-10-16T11:22:36.428Z,26.51
2017-10-16T11:23:47.310Z,26.46
2017-10-16T11:24:57.204Z,26.46
2017-10-16T11:26:06.363Z,26.37
2017-10-16T11:27:15.147Z,26.34
2017-10-16T11:28:24.254Z,26.27
2017-10-16T11:29:35.101Z,26.25
2017-10-16T11:30:45.278Z,26.04
2017-10-16T11:31:55.480Z,25.99
2017-10-16T11:33:04.604Z,25.94
2017-10-16T11:34:14.098Z,26
2017-10-16T11:35:25.553Z,26.27
2017-10-16T11:36:34.660Z,26.37
2017-10-16T11:37:45.557Z,26.52
2017-10-16T11:38:55.330Z,26.67
2017-10-16T11:40:04.427Z,26.78
2017-10-16T11:41:13.548Z,27.03
2017-10-16T11:42:22.674Z,26.92
2017-10-16T11:43:32.872Z,26.99
2017-10-16T11:44:42.441Z,26.93
2017-10-16T11:45:52.979Z,26.86
2017-10-16T11:47:02.191Z,26.9
2017-10-16T11:48:11.480Z,26.98
2017-10-16T11:49:21.673Z,27.15
2017-10-16T11:50:30.454Z,27.2
2017-10-16T11:51:40.875Z,27.3
2017-10-16T11:52:49.995Z,27.3
2017-10-16T11:53:59.287Z,27.31
2017-10-16T11:55:08.123Z,27.37
2017-10-16T11:56:17.821Z,27.26
2017-10-16T11:57:26.583Z,27.31
2017-10-16T11:58:36.785Z,27.39
2017-10-16T11:59:46.337Z,27.52
2017-10-16T12:00:55.775Z,27.64
2017-10-16T12:02:04.555Z,27.82
2017-10-16T12:03:13.461Z,27.87
2017-10-16T12:04:24.070Z,27.85
2017-10-16T12:05:32.840Z,27.9
2017-10-16T12:06:43.042Z,27.95
2017-10-16T12:07:52.924Z,27.9
2017-10-16T12:09:03.333Z,27.87
2017-10-16T12:10:12.553Z,27.89
2017-10-16T12:11:21.655Z,27.9
2017-10-16T12:12:30.827Z,28.02
2017-10-16T12:13:42.027Z,28.02
2017-10-16T12:14:51.123Z,27.87
2017-10-16T12:16:00.682Z,27.82
2017-10-16T12:17:09.533Z,27.95
2017-10-16T12:18:20.034Z,27.86
2017-10-16T12:19:29.129Z,27.95
2017-10-16T12:20:39.553Z,28.13
2017-10-16T12:21:50.068Z,28.2
2017-10-16T12:22:59.617Z,28.2
2017-10-16T12:24:08.738Z,28.29
2017-10-16T12:25:20.590Z,28.41
2017-10-16T12:26:29.420Z,28.6
2017-10-16T12:27:39.681Z,28.51
2017-10-16T12:28:50.573Z,28.65
2017-10-16T12:30:01.084Z,28.61
2017-10-16T12:31:11.749Z,28.42
2017-10-16T12:32:20.875Z,28.39
2017-10-16T12:33:31.537Z,28.5
2017-10-16T12:34:42.393Z,28.35
2017-10-16T12:35:51.190Z,28.35
2017-10-16T12:37:00.403Z,28.51
2017-10-16T12:38:10.476Z,28.49
2017-10-16T12:39:22.692Z,28.53
2017-10-16T12:40:32.402Z,28.49
2017-10-16T12:41:42.924Z,28.45
2017-10-16T12:42:52.283Z,28.44
2017-10-16T12:44:03.235Z,28.34
2017-10-16T12:45:12.360Z,28.35
2017-10-16T12:46:22.879Z,28.23
2017-10-16T12:47:31.666Z,28.22
2017-10-16T12:48:41.253Z,28.17
2017-10-16T12:49:51.322Z,28.11
2017-10-16T12:51:01.312Z,27.97
2017-10-16T12:52:11.912Z,27.97
2017-10-16T12:53:21.032Z,27.89
2017-10-16T12:54:30.149Z,27.86
2017-10-16T12:55:39.750Z,27.76
2017-10-16T12:56:48.528Z,27.67
2017-10-16T12:57:57.775Z,27.6
2017-10-16T12:59:06.893Z,27.49
2017-10-16T13:00:16.186Z,27.48
2017-10-16T13:01:25.312Z,27.42
2017-10-16T13:02:35.830Z,27.37
2017-10-16T13:03:46.054Z,27.26
2017-10-16T13:04:55.187Z,27.3
2017-10-16T13:06:04.389Z,27.11
2017-10-16T13:07:14.828Z,27.11
2017-10-16T13:08:24.716Z,27.1
2017-10-16T13:09:36.009Z,27.03
2017-10-16T13:10:45.121Z,27.03
2017-10-16T13:11:54.657Z,26.99
2017-10-16T13:13:06.153Z,26.77
2017-10-16T13:14:16.335Z,26.68
2017-10-16T13:15:25.579Z,26.56
2017-10-16T13:16:36.418Z,26.51
2017-10-16T13:17:45.185Z,26.34
2017-10-16T13:18:56.572Z,26.29
2017-10-16T13:20:07.003Z,26.29
2017-10-16T13:21:16.237Z,26.31
2017-10-16T13:22:26.024Z,26.18
2017-10-16T13:23:35.490Z,26.11
2017-10-16T13:24:44.290Z,25.99
2017-10-16T13:25:53.759Z,25.87
2017-10-16T13:27:04.606Z,25.82
2017-10-16T13:28:14.088Z,25.66
2017-10-16T13:29:23.460Z,25.68
2017-10-16T13:30:32.906Z,25.54
2017-10-16T13:31:41.706Z,25.34
2017-10-16T13:32:52.225Z,25.37
2017-10-16T13:34:02.646Z,25.29
2017-10-16T13:35:11.825Z,25.22
2017-10-16T13:36:20.979Z,25.15
2017-10-16T13:37:30.423Z,25.18
2017-10-16T13:38:41.918Z,25.13
2017-10-16T13:39:52.694Z,25.1
2017-10-16T13:41:04.843Z,25
2017-10-16T13:42:15.361Z,25.03
2017-10-16T13:43:24.475Z,24.92
2017-10-16T13:44:34.629Z,24.85
2017-10-16T13:45:44.492Z,24.85
2017-10-16T13:46:55.025Z,24.82
2017-10-16T13:48:05.220Z,24.78
2017-10-16T13:49:16.716Z,24.76
2017-10-16T13:50:28.550Z,24.72
2017-10-16T13:51:38.679Z,24.6
2017-10-16T13:52:47.472Z,24.58
2017-10-16T13:53:57.613Z,24.6
2017-10-16T13:55:06.476Z,24.47
2017-10-16T13:56:16.919Z,24.5
2017-10-16T13:57:28.125Z,24.38
2017-10-16T13:58:38.599Z,24.31
2017-10-16T13:59:50.173Z,24.32
2017-10-16T14:00:59.975Z,24.28
2017-10-16T14:02:09.450Z,24.24
2017-10-16T14:03:20.641Z,24.19
2017-10-16T14:04:30.591Z,24.1
2017-10-16T14:05:40.395Z,24.01
2017-10-16T14:06:49.630Z,24.12
2017-10-16T14:08:00.069Z,24.07
2017-10-16T14:09:09.521Z,23.97
2017-10-16T14:10:18.764Z,23.9
2017-10-16T14:11:28.955Z,23.9
2017-10-16T14:12:38.180Z,23.77
2017-10-16T14:13:47.288Z,23.79
2017-10-16T14:14:57.393Z,23.79
2017-10-16T14:16:08.407Z,23.68
2017-10-16T14:17:18.909Z,23.69
2017-10-16T14:18:27.733Z,23.76
2017-10-16T14:19:38.533Z,23.76
2017-10-16T14:20:47.321Z,23.73
2017-10-16T14:21:57.847Z,23.64
2017-10-16T14:23:08.296Z,23.6
2017-10-16T14:24:20.178Z,23.54
2017-10-16T14:25:29.665Z,23.54
2017-10-16T14:26:38.499Z,23.58
2017-10-16T14:27:47.729Z,23.5
2017-10-16T14:28:56.853Z,23.5
2017-10-16T14:30:07.389Z,23.43
2017-10-16T14:31:17.019Z,23.43
2017-10-16T14:32:27.201Z,23.42
2017-10-16T14:33:37.299Z,23.4
2017-10-16T14:34:46.762Z,23.35
2017-10-16T14:35:57.643Z,23.35
2017-10-16T14:37:08.050Z,23.38
2017-10-16T14:38:17.288Z,23.24
2017-10-16T14:39:27.000Z,23.21
2017-10-16T14:40:37.502Z,23.23
2017-10-16T14:41:46.726Z,23.2
2017-10-16T14:42:57.605Z,23.17
2017-10-16T14:44:08.130Z,23.18
2017-10-16T14:45:20.080Z,23.17
2017-10-16T14:46:29.543Z,23.08
2017-10-16T14:47:39.738Z,23.18
2017-10-16T14:48:51.597Z,23.13
2017-10-16T14:50:04.752Z,22.99
2017-10-16T14:51:13.870Z,23.03
2017-10-16T14:52:23.009Z,23.02
2017-10-16T14:53:34.189Z,23.01
2017-10-16T14:54:43.009Z,22.9
2017-10-16T14:55:53.763Z,22.85
2017-10-16T14:57:04.432Z,22.89
2017-10-16T14:58:14.613Z,22.86
2017-10-16T14:59:26.104Z,22.76
2017-10-16T15:00:36.553Z,22.75
2017-10-16T15:01:45.764Z,22.67
2017-10-16T15:02:55.021Z,22.64
2017-10-16T15:04:05.868Z,22.61
2017-10-16T15:05:14.977Z,22.63
2017-10-16T15:06:25.419Z,22.55
2017-10-16T15:07:36.071Z,22.58